createdAt,value
2022-08-31T00:00:31.674Z,7.57
2022-08-31T00:03:43.371Z,5.95
2022-08-31T00:06:10.352Z,9.85
2022-08-31T00:08:37.404Z,9.82
2022-08-31T00:11:08.379Z,8.05
2022-08-31T00:13:37.140Z,8.05
2022-08-31T00:16:04.470Z,5.78
2022-08-31T00:18:31.536Z,9.15
2022-08-31T00:20:58.591Z,9.43
2022-08-31T00:23:25.935Z,8.35
2022-08-31T00:25:53.316Z,7.88
2022-08-31T00:28:20.775Z,7.22
2022-08-31T00:30:48.718Z,8.77
2022-08-31T00:33:16.311Z,9.05
2022-08-31T00:35:43.562Z,7.13
2022-08-31T00:38:12.248Z,7.90
2022-08-31T00:40:45.041Z,9.73
2022-08-31T00:43:30.821Z,11.32
2022-08-31T00:45:58.185Z,11.65
2022-08-31T00:48:25.256Z,9.07
2022-08-31T00:50:52.763Z,6.93
2022-08-31T00:53:20.119Z,6.93
2022-08-31T00:55:47.494Z,8.02
2022-08-31T00:58:15.012Z,9.45
2022-08-31T01:00:43.368Z,8.02
2022-08-31T01:03:11.121Z,8.07
2022-08-31T01:05:40.227Z,7.57
2022-08-31T01:08:08.119Z,6.97
2022-08-31T01:10:43.949Z,9.35
2022-08-31T01:13:13.657Z,10.68
2022-08-31T01:18:12.311Z,10.18
2022-08-31T01:20:58.231Z,9.25
2022-08-31T01:23:26.674Z,6.88
2022-08-31T01:25:56.627Z,11.35
2022-08-31T01:28:24.370Z,11.32
2022-08-31T01:31:18.911Z,11.18
2022-08-31T01:33:46.056Z,9.75
2022-08-31T01:36:16.252Z,8.77
2022-08-31T01:38:44.544Z,12.23
2022-08-31T01:41:13.073Z,9.57
2022-08-31T01:46:10.812Z,8.20
2022-08-31T01:48:41.579Z,7.85
2022-08-31T01:51:10.730Z,11.00
2022-08-31T01:53:42.176Z,12.02
2022-08-31T01:56:19.280Z,11.88
2022-08-31T01:58:46.425Z,10.27
2022-08-31T02:01:37.417Z,12.60
2022-08-31T02:04:08.492Z,9.15
2022-08-31T02:06:36.009Z,11.38
2022-08-31T02:09:05.953Z,8.27
2022-08-31T02:11:33.428Z,13.02
2022-08-31T02:14:00.601Z,9.23
2022-08-31T02:16:28.330Z,12.18
2022-08-31T02:18:55.661Z,10.20
2022-08-31T02:21:23.041Z,11.23
2022-08-31T02:23:50.310Z,10.55
2022-08-31T02:26:17.653Z,8.82
2022-08-31T02:28:46.902Z,12.27
2022-08-31T02:31:14.389Z,10.10
2022-08-31T02:33:49.192Z,10.80
2022-08-31T02:36:16.740Z,11.93
2022-08-31T02:38:44.208Z,9.70
2022-08-31T02:41:11.266Z,9.00
2022-08-31T02:43:40.643Z,10.82
2022-08-31T02:46:07.766Z,9.85
2022-08-31T02:48:41.350Z,9.80
2022-08-31T02:51:12.201Z,9.55
2022-08-31T02:53:39.538Z,12.52
2022-08-31T02:56:08.210Z,10.82
2022-08-31T02:58:37.859Z,9.43
2022-08-31T03:03:34.900Z,10.00
2022-08-31T03:06:02.771Z,16.73
2022-08-31T03:08:31.042Z,11.30
2022-08-31T03:10:58.940Z,8.47
2022-08-31T03:13:26.032Z,9.80
2022-08-31T03:15:53.067Z,10.13
2022-08-31T03:18:21.507Z,15.30
2022-08-31T03:20:48.717Z,11.07
2022-08-31T03:23:15.820Z,9.73
2022-08-31T03:25:42.931Z,9.85
2022-08-31T03:28:10.430Z,9.45
2022-08-31T03:30:41.004Z,8.38
2022-08-31T03:33:10.999Z,12.70
2022-08-31T03:35:38.166Z,11.45
2022-08-31T03:38:05.548Z,9.40
2022-08-31T03:40:33.173Z,11.13
2022-08-31T03:43:00.233Z,13.05
2022-08-31T03:45:28.350Z,10.38
2022-08-31T03:47:55.932Z,10.27
2022-08-31T03:50:25.572Z,8.77
2022-08-31T03:53:09.610Z,9.57
2022-08-31T03:55:40.000Z,10.68
2022-08-31T03:58:08.673Z,12.70
2022-08-31T04:00:38.730Z,11.05
2022-08-31T04:03:15.318Z,9.98
2022-08-31T04:06:00.734Z,8.32
2022-08-31T04:08:46.137Z,10.35
2022-08-31T04:11:45.119Z,9.88
2022-08-31T04:14:32.052Z,11.38
2022-08-31T04:17:22.022Z,13.90
2022-08-31T04:19:56.091Z,10.77
2022-08-31T04:22:29.281Z,10.77
2022-08-31T04:25:14.790Z,11.38
2022-08-31T04:27:45.273Z,11.43
2022-08-31T04:30:12.812Z,9.80
2022-08-31T04:32:40.475Z,10.68
2022-08-31T04:35:08.691Z,12.43
2022-08-31T04:37:35.762Z,10.15
2022-08-31T04:40:03.656Z,12.93
2022-08-31T04:42:31.998Z,8.80
2022-08-31T04:44:59.205Z,9.80
2022-08-31T04:47:26.599Z,9.68
2022-08-31T04:49:53.713Z,10.43
2022-08-31T04:52:22.000Z,14.30
2022-08-31T04:54:55.872Z,10.68
2022-08-31T04:57:22.903Z,12.27
2022-08-31T04:59:50.060Z,10.90
2022-08-31T05:02:37.577Z,10.50
2022-08-31T05:05:14.380Z,9.88
2022-08-31T05:07:42.981Z,10.65
2022-08-31T05:10:10.352Z,10.90
2022-08-31T05:12:37.430Z,10.52
2022-08-31T05:15:04.884Z,9.13
2022-08-31T05:17:33.176Z,10.77
2022-08-31T05:20:00.322Z,10.13
2022-08-31T05:22:30.355Z,12.27
2022-08-31T05:24:58.597Z,10.77
2022-08-31T05:27:25.643Z,13.23
2022-08-31T05:29:52.637Z,9.07
2022-08-31T05:32:41.388Z,9.77
2022-08-31T05:35:10.520Z,9.25
2022-08-31T05:37:39.140Z,12.05
2022-08-31T05:40:08.315Z,9.52
2022-08-31T05:42:36.098Z,9.43
2022-08-31T05:45:03.242Z,13.00
2022-08-31T05:47:31.166Z,15.23
2022-08-31T05:49:59.023Z,12.38
2022-08-31T05:52:26.776Z,8.60
2022-08-31T05:54:54.669Z,12.60
2022-08-31T05:57:26.326Z,10.07
2022-08-31T05:59:55.066Z,11.52
2022-08-31T06:02:23.311Z,16.63
2022-08-31T06:04:57.405Z,8.80
2022-08-31T06:07:24.505Z,8.57
2022-08-31T06:09:56.225Z,10.80
2022-08-31T06:12:26.166Z,7.88
2022-08-31T06:14:55.555Z,9.27
2022-08-31T06:17:24.366Z,12.68
2022-08-31T06:19:51.760Z,8.20
2022-08-31T06:22:20.231Z,11.50
2022-08-31T06:24:48.333Z,12.57
2022-08-31T06:27:16.285Z,12.73
2022-08-31T06:29:43.495Z,10.73
2022-08-31T06:32:14.694Z,10.02
2022-08-31T06:34:50.195Z,10.80
2022-08-31T06:37:49.603Z,11.82
2022-08-31T06:40:36.945Z,15.20
2022-08-31T06:43:30.155Z,9.55
2022-08-31T06:46:05.693Z,18.70
2022-08-31T06:48:33.256Z,12.35
2022-08-31T06:51:00.564Z,10.93
2022-08-31T06:53:28.923Z,10.15
2022-08-31T06:56:20.920Z,14.13
2022-08-31T06:59:08.149Z,12.05
2022-08-31T07:01:55.456Z,12.30
2022-08-31T07:04:38.741Z,12.18
2022-08-31T07:07:08.204Z,12.35
2022-08-31T07:09:35.660Z,11.52
2022-08-31T07:12:04.438Z,10.93
2022-08-31T07:14:31.785Z,12.80
2022-08-31T07:17:03.042Z,12.77
2022-08-31T07:19:31.549Z,12.40
2022-08-31T07:22:01.212Z,10.48
2022-08-31T07:24:33.283Z,12.90
2022-08-31T07:27:10.064Z,12.02
2022-08-31T07:29:43.157Z,12.98
2022-08-31T07:34:44.088Z,10.88
2022-08-31T07:37:48.111Z,14.73
2022-08-31T07:40:33.865Z,12.90
2022-08-31T07:43:04.559Z,13.07
2022-08-31T07:45:37.301Z,12.05
2022-08-31T07:48:06.999Z,11.68
2022-08-31T07:51:00.189Z,14.80
2022-08-31T07:53:54.464Z,11.65
2022-08-31T07:56:42.162Z,10.13
2022-08-31T07:59:11.421Z,13.05
2022-08-31T08:01:41.427Z,10.07
2022-08-31T08:04:13.327Z,11.23
2022-08-31T08:07:00.837Z,11.65
2022-08-31T08:10:07.077Z,13.00
2022-08-31T08:12:48.436Z,10.00
2022-08-31T08:15:38.756Z,12.05
2022-08-31T08:18:11.120Z,11.40
2022-08-31T08:20:43.563Z,13.00
2022-08-31T08:23:14.606Z,12.30
2022-08-31T08:26:01.235Z,11.20
2022-08-31T08:28:48.316Z,12.32
2022-08-31T08:31:18.652Z,11.20
2022-08-31T08:33:46.065Z,9.35
2022-08-31T08:36:18.629Z,10.52
2022-08-31T08:38:48.886Z,10.75
2022-08-31T08:44:00.778Z,13.27
2022-08-31T08:46:50.950Z,9.43
2022-08-31T08:49:29.232Z,9.15
2022-08-31T08:52:05.500Z,10.38
2022-08-31T08:54:42.382Z,9.27
2022-08-31T08:57:18.484Z,11.32
2022-08-31T08:59:51.123Z,9.88
2022-08-31T09:05:30.840Z,11.57
2022-08-31T09:08:32.284Z,10.60
2022-08-31T09:11:19.476Z,9.63
2022-08-31T09:14:11.263Z,11.20
2022-08-31T09:17:25.077Z,10.48
2022-08-31T09:20:05.864Z,13.90
2022-08-31T09:22:50.768Z,10.45
2022-08-31T09:25:37.545Z,10.70
2022-08-31T09:28:36.256Z,13.77
2022-08-31T09:31:03.726Z,10.00
2022-08-31T09:33:34.668Z,13.07
2022-08-31T09:36:22.591Z,12.13
2022-08-31T09:38:50.280Z,12.10
2022-08-31T09:41:22.862Z,12.52
2022-08-31T09:43:50.623Z,14.32
2022-08-31T09:46:30.600Z,9.32
2022-08-31T09:48:59.870Z,16.60
2022-08-31T09:51:38.429Z,11.75
2022-08-31T09:54:41.991Z,12.73
2022-08-31T09:57:11.552Z,13.95
2022-08-31T09:59:44.540Z,9.70
2022-08-31T10:02:26.217Z,9.85
2022-08-31T10:04:59.328Z,8.75
2022-08-31T10:07:44.802Z,12.15
2022-08-31T10:10:29.979Z,10.93
2022-08-31T10:13:16.631Z,9.13
2022-08-31T10:16:00.185Z,12.27
2022-08-31T10:18:39.634Z,9.60
2022-08-31T10:21:11.357Z,8.35
2022-08-31T10:23:54.556Z,11.73
2022-08-31T10:26:36.872Z,8.45
2022-08-31T10:29:28.515Z,10.65
2022-08-31T10:31:58.896Z,9.68
2022-08-31T10:34:51.342Z,9.18
2022-08-31T10:37:31.604Z,11.30
2022-08-31T10:40:07.067Z,8.55
2022-08-31T10:42:50.230Z,10.32
2022-08-31T10:45:24.806Z,9.85
2022-08-31T10:47:55.454Z,11.90
2022-08-31T10:50:28.681Z,10.30
2022-08-31T10:53:42.670Z,12.45
2022-08-31T10:56:39.804Z,11.30
2022-08-31T10:59:46.222Z,10.75
2022-08-31T11:02:43.166Z,15.88
2022-08-31T11:05:35.265Z,24.80
2022-08-31T11:08:14.113Z,12.80
2022-08-31T11:10:55.490Z,16.83
2022-08-31T11:13:57.225Z,9.48
2022-08-31T11:16:55.433Z,10.35
2022-08-31T11:19:41.645Z,9.48
2022-08-31T11:22:34.813Z,11.07
2022-08-31T11:25:29.398Z,11.70
2022-08-31T11:28:08.257Z,10.95
2022-08-31T11:30:42.211Z,12.97
2022-08-31T11:33:16.347Z,9.95
2022-08-31T11:36:06.463Z,9.30
2022-08-31T11:39:03.179Z,11.35
2022-08-31T11:41:47.710Z,10.13
2022-08-31T11:44:30.144Z,11.73
2022-08-31T11:47:29.739Z,8.05
2022-08-31T11:50:05.592Z,11.95
2022-08-31T11:52:38.490Z,8.85
2022-08-31T11:55:27.343Z,8.07
2022-08-31T11:58:12.240Z,13.17
2022-08-31T12:00:57.458Z,9.50
2022-08-31T12:03:51.582Z,9.97
2022-08-31T12:06:25.144Z,8.65
2022-08-31T12:09:01.966Z,8.65
2022-08-31T12:11:36.563Z,8.80
2022-08-31T12:14:12.376Z,5.43
2022-08-31T12:17:09.712Z,7.47
2022-08-31T12:20:07.940Z,7.93
2022-08-31T12:23:11.788Z,7.00
2022-08-31T12:26:17.633Z,6.57
2022-08-31T12:29:08.930Z,10.00
2022-08-31T12:31:40.003Z,6.93
2022-08-31T12:34:17.165Z,4.85
2022-08-31T12:36:44.818Z,9.30
2022-08-31T12:39:21.408Z,5.03
2022-08-31T12:41:58.336Z,10.25
2022-08-31T12:44:43.350Z,7.45
2022-08-31T12:47:34.249Z,7.03
2022-08-31T12:50:18.977Z,5.15
2022-08-31T12:53:20.936Z,6.22
2022-08-31T12:56:09.060Z,3.92
2022-08-31T12:59:00.808Z,3.65
2022-08-31T13:01:28.400Z,4.75
2022-08-31T13:04:00.359Z,3.88
2022-08-31T13:06:27.448Z,3.67
2022-08-31T13:08:55.503Z,3.85
2022-08-31T13:11:35.158Z,4.63
2022-08-31T13:14:26.879Z,5.68
2022-08-31T13:17:06.489Z,4.07
2022-08-31T13:22:08.811Z,4.35
2022-08-31T13:24:47.958Z,4.68
2022-08-31T13:27:21.136Z,5.88
2022-08-31T13:29:49.802Z,4.15
2022-08-31T13:32:29.739Z,3.47
2022-08-31T13:34:57.597Z,4.35
2022-08-31T13:37:32.175Z,3.83
2022-08-31T13:40:06.583Z,3.83
2022-08-31T13:42:43.046Z,7.15
2022-08-31T13:45:26.379Z,4.22
2022-08-31T13:48:11.755Z,4.30
2022-08-31T13:50:53.652Z,5.68
2022-08-31T13:53:41.459Z,5.40
2022-08-31T13:56:46.211Z,6.05
2022-08-31T13:59:37.866Z,5.30
2022-08-31T14:02:18.664Z,4.05
2022-08-31T14:04:57.600Z,7.60
2022-08-31T14:07:45.865Z,3.90
2022-08-31T14:10:15.001Z,3.47
2022-08-31T14:13:04.802Z,3.45
2022-08-31T14:15:41.146Z,5.90
2022-08-31T14:18:24.193Z,5.38
2022-08-31T14:21:23.730Z,5.85
2022-08-31T14:23:53.985Z,4.53
2022-08-31T14:26:29.001Z,3.65
2022-08-31T14:29:00.417Z,3.53
2022-08-31T14:31:41.407Z,4.32
2022-08-31T14:34:08.331Z,4.03
2022-08-31T14:36:50.375Z,5.63
2022-08-31T14:39:17.343Z,3.30
2022-08-31T14:41:45.649Z,5.15
2022-08-31T14:44:13.533Z,4.78
2022-08-31T14:46:42.491Z,4.90
2022-08-31T14:49:10.836Z,4.80
2022-08-31T14:51:39.217Z,3.58
2022-08-31T14:54:08.951Z,4.43
2022-08-31T14:59:12.505Z,6.07
2022-08-31T15:01:42.696Z,7.10
2022-08-31T15:04:10.372Z,5.53
2022-08-31T15:06:37.394Z,6.95
2022-08-31T15:09:05.212Z,4.53
2022-08-31T15:11:37.155Z,4.18
2022-08-31T15:14:07.650Z,4.22
2022-08-31T15:16:34.748Z,5.93
2022-08-31T15:19:02.286Z,5.40
2022-08-31T15:21:31.434Z,6.60
2022-08-31T15:23:58.425Z,4.28
2022-08-31T15:26:25.665Z,7.32
2022-08-31T15:28:52.759Z,4.05
2022-08-31T15:31:23.763Z,4.95
2022-08-31T15:33:53.974Z,5.55
2022-08-31T15:36:25.838Z,6.32
2022-08-31T15:38:56.104Z,5.45
2022-08-31T15:41:26.486Z,7.85
2022-08-31T15:43:53.505Z,6.72
2022-08-31T15:46:40.778Z,4.95
2022-08-31T15:49:09.968Z,5.20
2022-08-31T15:51:49.141Z,5.03
2022-08-31T15:54:22.578Z,6.05
2022-08-31T15:56:59.049Z,5.80
2022-08-31T15:59:26.125Z,5.18
2022-08-31T16:01:53.250Z,6.18
2022-08-31T16:04:23.772Z,5.32
2022-08-31T16:06:53.012Z,4.70
2022-08-31T16:09:21.323Z,7.43
2022-08-31T16:11:49.745Z,4.80
2022-08-31T16:14:17.999Z,5.97
2022-08-31T16:16:48.204Z,5.28
2022-08-31T16:19:34.206Z,5.93
2022-08-31T16:22:03.143Z,5.03
2022-08-31T16:24:37.248Z,6.00
2022-08-31T16:27:13.990Z,6.75
2022-08-31T16:29:44.585Z,10.88
2022-08-31T16:32:12.131Z,6.43
2022-08-31T16:34:40.181Z,7.88
2022-08-31T16:37:07.919Z,6.75
2022-08-31T16:39:41.158Z,5.25
2022-08-31T16:42:11.081Z,7.78
2022-08-31T16:44:39.127Z,5.68
2022-08-31T16:47:07.741Z,5.70
2022-08-31T16:49:40.742Z,6.07
2022-08-31T16:52:11.522Z,8.55
2022-08-31T16:54:45.177Z,13.50
2022-08-31T16:57:15.757Z,9.15
2022-08-31T16:59:43.887Z,10.65
2022-08-31T17:02:13.073Z,17.42
2022-08-31T17:04:51.980Z,8.18
2022-08-31T17:07:20.225Z,5.22
2022-08-31T17:09:47.923Z,6.97
2022-08-31T17:12:21.656Z,6.00
2022-08-31T17:14:52.725Z,4.88
2022-08-31T17:17:23.259Z,5.28
2022-08-31T17:19:52.275Z,12.27
2022-08-31T17:22:27.000Z,11.47
2022-08-31T17:24:59.399Z,8.15
2022-08-31T17:27:27.461Z,7.82
2022-08-31T17:30:01.097Z,6.53
2022-08-31T17:32:29.209Z,6.30
2022-08-31T17:34:56.852Z,6.65
2022-08-31T17:37:32.862Z,7.22
2022-08-31T17:40:00.478Z,7.82
2022-08-31T17:42:29.117Z,6.82
2022-08-31T17:44:58.238Z,6.13
2022-08-31T17:47:26.071Z,6.80
2022-08-31T17:49:54.224Z,6.50
2022-08-31T17:52:21.744Z,6.40
2022-08-31T17:54:50.922Z,6.25
2022-08-31T17:57:22.472Z,6.38
2022-08-31T17:59:49.604Z,6.20
2022-08-31T18:02:32.663Z,8.02
2022-08-31T18:05:01.644Z,5.60
2022-08-31T18:07:29.126Z,7.70
2022-08-31T18:09:56.264Z,5.82
2022-08-31T18:12:25.768Z,6.57
2022-08-31T18:14:54.012Z,7.10
2022-08-31T18:17:24.245Z,7.28
2022-08-31T18:19:51.390Z,5.70
2022-08-31T18:22:19.920Z,5.78
2022-08-31T18:24:47.308Z,5.75
2022-08-31T18:27:15.476Z,4.88
2022-08-31T18:29:44.375Z,5.30
2022-08-31T18:32:13.596Z,5.57
2022-08-31T18:34:46.543Z,8.38
2022-08-31T18:37:15.280Z,5.43
2022-08-31T18:40:03.221Z,5.97
2022-08-31T18:42:50.773Z,5.80
2022-08-31T18:45:21.054Z,6.03
2022-08-31T18:50:46.834Z,5.65
2022-08-31T18:53:28.608Z,11.02
2022-08-31T18:56:49.629Z,6.07
2022-08-31T19:00:09.359Z,6.78
2022-08-31T19:02:40.570Z,6.03
2022-08-31T19:05:13.568Z,5.97
2022-08-31T19:07:41.450Z,5.70
2022-08-31T19:10:13.771Z,6.63
2022-08-31T19:12:42.879Z,9.77
2022-08-31T19:15:11.757Z,6.43
2022-08-31T19:17:40.326Z,7.10
2022-08-31T19:20:10.184Z,6.07
2022-08-31T19:22:38.443Z,7.15
2022-08-31T19:25:09.235Z,7.97
2022-08-31T19:27:36.728Z,6.72
2022-08-31T19:30:08.322Z,6.63
2022-08-31T19:32:36.905Z,7.18
2022-08-31T19:35:05.414Z,7.05
2022-08-31T19:37:32.421Z,7.68
2022-08-31T19:39:59.753Z,11.48
2022-08-31T19:45:23.283Z,8.88
2022-08-31T19:47:51.152Z,11.40
2022-08-31T19:50:18.414Z,7.72
2022-08-31T19:52:46.105Z,9.73
2022-08-31T19:55:16.522Z,7.43
2022-08-31T19:57:43.775Z,9.15
2022-08-31T20:00:11.969Z,7.80
2022-08-31T20:02:42.523Z,8.40
2022-08-31T20:05:10.089Z,6.95
2022-08-31T20:07:37.255Z,8.68
2022-08-31T20:10:05.234Z,15.10
2022-08-31T20:12:33.521Z,25.70
2022-08-31T20:15:00.654Z,39.88
2022-08-31T20:17:31.412Z,32.38
2022-08-31T20:20:00.152Z,26.98
2022-08-31T20:22:28.101Z,18.42
2022-08-31T20:27:26.575Z,14.80
2022-08-31T20:29:53.547Z,11.48
2022-08-31T20:32:20.767Z,10.15
2022-08-31T20:35:29.248Z,7.68
2022-08-31T20:37:59.032Z,8.32
2022-08-31T20:42:56.595Z,8.15
2022-08-31T20:45:23.712Z,8.73
2022-08-31T20:52:12.047Z,8.98
2022-08-31T20:54:39.145Z,8.57
2022-08-31T20:57:09.268Z,10.60
2022-08-31T20:59:37.198Z,11.05
2022-08-31T21:02:06.891Z,8.75
2022-08-31T21:07:07.069Z,8.57
2022-08-31T21:09:34.067Z,10.23
2022-08-31T21:12:01.389Z,8.40
2022-08-31T21:14:29.117Z,9.52
2022-08-31T21:16:56.816Z,11.48
2022-08-31T21:19:25.025Z,9.75
2022-08-31T21:21:56.293Z,12.68
2022-08-31T21:24:23.410Z,12.07
2022-08-31T21:26:59.262Z,13.32
2022-08-31T21:29:28.306Z,12.13
2022-08-31T21:32:03.329Z,13.02
2022-08-31T21:34:31.246Z,11.75
2022-08-31T21:36:58.295Z,11.60
2022-08-31T21:39:27.101Z,12.93
2022-08-31T21:41:56.202Z,17.13
2022-08-31T21:44:24.501Z,12.05
2022-08-31T21:46:51.859Z,10.77
2022-08-31T21:49:19.741Z,13.68
2022-08-31T21:51:52.998Z,14.50
2022-08-31T21:54:22.078Z,12.55
2022-08-31T21:56:52.330Z,12.20
2022-08-31T21:59:22.215Z,12.23
2022-08-31T22:01:55.821Z,13.75
2022-08-31T22:04:23.635Z,12.23
2022-08-31T22:06:50.630Z,11.45
2022-08-31T22:09:22.465Z,13.32
2022-08-31T22:11:54.040Z,12.27
2022-08-31T22:14:26.320Z,10.80
2022-08-31T22:16:56.394Z,11.93
2022-08-31T22:19:25.725Z,9.57
2022-08-31T22:21:55.494Z,11.15
2022-08-31T22:26:57.251Z,12.13
2022-08-31T22:29:27.440Z,10.20
2022-08-31T22:31:59.413Z,9.48
2022-08-31T22:34:26.885Z,12.07
2022-08-31T22:36:56.297Z,9.57
2022-08-31T22:39:29.479Z,12.43
2022-08-31T22:41:58.732Z,12.18
2022-08-31T22:44:28.913Z,9.70
2022-08-31T22:46:59.389Z,15.05
2022-08-31T22:49:27.180Z,10.70
2022-08-31T22:51:54.581Z,13.95
2022-08-31T22:54:22.995Z,13.20
2022-08-31T22:56:50.542Z,14.13
2022-08-31T22:59:24.836Z,13.18
2022-08-31T23:01:55.049Z,12.77
2022-08-31T23:04:25.138Z,13.68
2022-08-31T23:09:21.935Z,17.35
2022-08-31T23:11:53.555Z,17.92
2022-08-31T23:14:21.611Z,16.25
2022-08-31T23:16:57.281Z,15.75
2022-08-31T23:19:30.911Z,20.08
2022-08-31T23:21:58.969Z,16.58
2022-08-31T23:24:39.010Z,19.30
2022-08-31T23:27:10.062Z,17.48
2022-08-31T23:29:40.353Z,17.73
2022-08-31T23:32:11.310Z,18.15
2022-08-31T23:34:39.498Z,20.33
2022-08-31T23:37:08.745Z,18.60
2022-08-31T23:39:39.344Z,18.95
2022-08-31T23:42:07.727Z,18.45
2022-08-31T23:44:36.053Z,19.27
2022-08-31T23:47:03.210Z,20.63
2022-08-31T23:49:30.182Z,18.40
2022-08-31T23:51:57.183Z,21.98
2022-08-31T23:54:25.149Z,19.67
2022-08-31T23:56:58.021Z,18.48
2022-08-31T23:59:25.776Z,19.23
